KCUL

Carmi Municipal Airport

Carmi, Illinois, USA
METAR KCUL 271135Z AUTO 15003KT 2 1/2SM BR CLR 21/21 A2989 RMK AO2 T02110211
Observed Flight Rules
May-27 @ 11:35 UTC (31 minutes ago) Instrument Flight Rules
Wind Visibility Clouds Conditions
150° at 3 knots 2 1/2 miles
  • Clear skies
  • Mist
Temperatures Readings
Current 21°C / 70°F
Dewpoint 21°C / 70°F
Humidity 100%
Altimeter 29.89" Hg
Pressure 1012 hPa
Elevation 118
METAR KCUL 271135Z AUTO 15003KT 2 1/2SM BR CLR 21/21 A2989 RMK AO2 T02110211
Observed Flight Rules
May-27 @ 11:35 UTC
(31 minutes ago)
IFR
Wind Visibility
150° at 3 knots 2 1/2 miles
Clouds
  • Clear skies
Conditions
  • Mist
Temperature Dewpoint
21°C / 70°F 21°C / 70°F
Humidity Altimeter Pressure
100% 29.89" Hg 1012 hPa